Time;durP1;ratioP1;P1;durP2;ratioP2;P2;SDS_P1;SDS_P2;PMS_P1;PMS_P2;Temp;Humidity;BMP_temperature;BMP_pressure;BME280_temperature;BME280_humidity;BME280_pressure;Samples;Min_cycle;Max_cycle;Signal;HPM_P1;HPM_P2
2022/12/24 00:01:07;;;;;;;59.00;27.05;;;;;;;2.51;79.69;95115.66;4975872;28;20034;-83
2022/12/24 00:03:34;;;;;;;55.65;27.63;;;;;;;2.42;80.14;95112.56;4982645;28;20038;-83
2022/12/24 00:06:03;;;;;;;53.20;26.92;;;;;;;1.99;80.35;95068.28;4992822;28;20072;-82
2022/12/24 00:08:29;;;;;;;58.85;26.75;;;;;;;2.09;80.41;95067.75;4974949;28;20085;-84
2022/12/24 00:10:54;;;;;;;50.45;25.17;;;;;;;2.46;80.05;95139.88;4993080;28;20405;-83
2022/12/24 00:13:20;;;;;;;54.03;26.52;;;;;;;1.28;80.20;94934.97;4975576;28;20042;-83
2022/12/24 00:15:46;;;;;;;52.05;26.15;;;;;;;2.41;80.45;95115.41;4975365;28;20398;-83
2022/12/24 00:18:11;;;;;;;51.13;24.88;;;;;;;1.94;80.08;95031.53;4974954;28;20045;-83
2022/12/24 00:20:36;;;;;;;51.00;25.88;;;;;;;1.91;80.07;95034.59;4975295;28;20109;-83
2022/12/24 00:23:02;;;;;;;52.10;25.73;;;;;;;2.01;80.00;95052.38;4992558;28;20026;-83
2022/12/24 00:25:27;;;;;;;53.08;26.38;;;;;;;1.91;80.22;95024.94;4975328;28;20413;-83
2022/12/24 00:27:53;;;;;;;61.42;25.27;;;;;;;1.84;79.85;95015.59;4992633;28;20041;-83
2022/12/24 00:30:18;;;;;;;51.28;24.48;;;;;;;2.05;80.09;95045.69;4992593;28;20027;-83
2022/12/24 00:32:43;;;;;;;55.78;24.90;;;;;;;1.71;79.68;94990.44;4992952;28;20038;-83
2022/12/24 00:35:09;;;;;;;47.80;24.08;;;;;;;1.67;79.93;94980.66;4992938;28;20106;-83
2022/12/24 00:37:34;;;;;;;46.90;24.67;;;;;;;1.98;80.00;95045.00;4980218;28;20037;-83
2022/12/24 00:40:00;;;;;;;50.08;25.67;;;;;;;1.80;80.17;95023.09;4975022;28;20026;-83
2022/12/24 00:42:25;;;;;;;46.55;23.58;;;;;;;1.92;79.89;95038.81;4983481;28;20034;-83
2022/12/24 00:44:51;;;;;;;51.78;24.77;;;;;;;2.38;79.84;95105.38;4992635;28;20106;-83
2022/12/24 00:47:16;;;;;;;61.53;25.73;;;;;;;1.65;79.74;94995.75;4974919;28;20038;-83
2022/12/24 00:49:43;;;;;;;64.32;29.83;;;;;;;1.67;79.73;94997.13;4992118;28;20038;-83
2022/12/24 00:52:08;;;;;;;95.45;41.25;;;;;;;1.87;79.62;95012.53;4992048;28;20037;-83
2022/12/24 00:54:33;;;;;;;64.55;32.50;;;;;;;2.01;79.47;95052.38;4974906;28;20862;-83
2022/12/24 00:56:59;;;;;;;101.07;43.05;;;;;;;1.82;79.28;95022.88;4974495;28;20544;-83
2022/12/24 00:59:25;;;;;;;170.43;76.18;;;;;;;1.66;79.10;94992.13;4992108;28;20096;-83
2022/12/24 01:01:50;;;;;;;183.35;86.95;;;;;;;1.95;79.35;95043.59;4974683;28;20529;-82
2022/12/24 01:07:00;;;;;;;156.50;71.43;;;;;;;1.77;78.98;95007.84;4992126;28;20072;-83
2022/12/24 01:09:25;;;;;;;253.63;115.20;;;;;;;2.05;78.90;95058.78;4974157;28;20493;-82
2022/12/24 01:11:50;;;;;;;216.23;99.95;;;;;;;2.08;79.25;95087.88;4981342;28;20513;-83
2022/12/24 01:14:16;;;;;;;189.73;86.00;;;;;;;1.55;78.97;94986.63;4982470;28;20034;-82
2022/12/24 01:16:41;;;;;;;186.90;83.53;;;;;;;2.17;78.84;95090.97;4991798;28;20085;-83
2022/12/24 01:19:07;;;;;;;116.38;56.13;;;;;;;2.47;78.55;95130.19;4991415;28;20034;-83
2022/12/24 01:21:32;;;;;;;152.23;71.47;;;;;;;1.60;78.60;95006.91;4992044;28;20073;-83
2022/12/24 01:23:58;;;;;;;247.77;113.38;;;;;;;2.02;78.68;95059.19;4991803;28;20077;-83
2022/12/24 01:26:23;;;;;;;222.20;103.30;;;;;;;1.63;78.76;95006.44;4974156;28;20509;-83
2022/12/24 01:28:48;;;;;;;193.02;92.32;;;;;;;2.30;78.63;95094.19;4973664;28;20040;-82
2022/12/24 01:31:17;;;;;;;152.70;71.88;;;;;;;2.42;78.50;95115.19;4973710;28;20084;-83
2022/12/24 01:33:43;;;;;;;155.02;66.13;;;;;;;2.00;78.09;95053.38;4990804;28;20035;-83
2022/12/24 01:36:10;;;;;;;162.98;72.68;;;;;;;2.41;77.94;95116.19;4974024;28;20125;-83
2022/12/24 01:38:35;;;;;;;164.95;78.57;;;;;;;1.95;78.25;95051.44;4991731;28;20456;-83
2022/12/24 01:43:45;;;;;;;162.50;75.00;;;;;;;1.60;78.06;95016.56;4991375;28;20476;-84
2022/12/24 01:46:19;;;;;;;168.55;78.65;;;;;;;1.87;78.16;95065.63;4973888;28;20034;-83
2022/12/24 01:48:56;;;;;;;180.23;79.55;;;;;;;1.58;77.97;95018.56;4973369;28;20062;-83
2022/12/24 01:51:28;;;;;;;197.75;85.50;;;;;;;2.31;77.99;95123.78;4990635;28;20035;-82
2022/12/24 01:53:57;;;;;;;181.02;82.65;;;;;;;1.73;77.90;95053.75;4991568;28;20034;-83
2022/12/24 01:56:25;;;;;;;193.93;86.70;;;;;;;1.59;78.20;95036.66;4991185;28;20042;-83
2022/12/24 01:58:54;;;;;;;176.25;83.90;;;;;;;1.34;78.13;94997.56;4976230;28;20073;-84
2022/12/24 02:01:20;;;;;;;173.30;81.28;;;;;;;2.02;77.99;95098.44;4990699;28;20030;-83
2022/12/24 02:03:46;;;;;;;184.15;85.32;;;;;;;1.37;77.63;94991.91;4973583;28;20532;-83
2022/12/24 02:06:16;;;;;;;193.90;89.63;;;;;;;1.50;78.18;95017.06;4991420;28;20030;-83
2022/12/24 02:08:43;;;;;;;214.88;94.22;;;;;;;1.42;78.12;95005.09;4973479;28;20378;-83
2022/12/24 02:11:21;;;;;;;192.98;88.95;;;;;;;2.04;77.87;95104.25;4986803;28;20038;-83
2022/12/24 02:13:54;;;;;;;183.48;86.63;;;;;;;2.00;77.85;95106.50;4987757;28;20517;-82
2022/12/24 02:16:37;;;;;;;186.75;88.13;;;;;;;2.03;78.34;95108.69;4990512;28;20055;-82
2022/12/24 02:19:27;;;;;;;187.25;89.50;;;;;;;2.02;78.24;95111.50;4973094;28;20026;-83
2022/12/24 02:22:01;;;;;;;180.75;86.60;;;;;;;1.82;78.03;95091.66;4973052;28;20054;-83
2022/12/24 02:24:30;;;;;;;185.50;88.30;;;;;;;1.99;78.41;95117.19;4973233;28;20460;-83
2022/12/24 02:27:18;;;;;;;184.05;88.63;;;;;;;1.98;78.40;95115.59;4990356;28;20035;-83
2022/12/24 02:30:11;;;;;;;191.80;91.47;;;;;;;1.97;78.03;95120.03;4972607;28;20034;-83
2022/12/24 02:32:42;;;;;;;195.10;89.05;;;;;;;1.88;78.19;95105.66;4975073;28;20516;-84
2022/12/24 02:35:17;;;;;;;197.77;89.85;;;;;;;1.56;78.19;95073.69;4975469;28;20041;-84
2022/12/24 02:37:49;;;;;;;201.05;91.35;;;;;;;1.65;78.61;95077.59;4990612;28;20089;-83
2022/12/24 02:40:28;;;;;;;189.40;88.25;;;;;;;1.83;78.08;95118.63;4990668;28;20034;-83
2022/12/24 02:43:00;;;;;;;191.10;89.80;;;;;;;1.72;78.71;95093.19;4989771;28;20060;-84
2022/12/24 02:45:27;;;;;;;;;;;;;;;1.86;78.66;95113.72;4973534;28;20053;-82
2022/12/24 02:47:54;;;;;;;180.57;88.30;;;;;;;1.84;78.53;95120.97;4990949;28;20009;-82
2022/12/24 02:50:20;;;;;;;189.63;90.35;;;;;;;1.47;78.26;95057.50;4991317;28;20476;-82
2022/12/24 02:52:46;;;;;;;185.85;89.35;;;;;;;1.39;78.33;95036.88;4993112;28;20030;-80
2022/12/24 02:55:41;;;;;;;190.13;88.75;;;;;;;1.79;78.74;95094.72;4962442;28;20421;-80
2022/12/24 02:58:20;;;;;;;191.20;90.50;;;;;;;1.81;78.31;95091.88;4951667;28;20046;-80
2022/12/24 03:01:21;;;;;;;188.52;90.93;;;;;;;1.69;78.10;95072.72;4978244;28;20501;-80
2022/12/24 03:04:14;;;;;;;190.73;89.22;;;;;;;1.27;78.06;95011.72;4995556;28;20026;-80
2022/12/24 03:07:03;;;;;;;206.40;94.13;;;;;;;1.81;78.23;95095.28;4980901;28;20493;-80
2022/12/24 03:09:49;;;;;;;234.02;104.03;;;;;;;1.24;78.34;95007.72;4978134;28;20034;-81
2022/12/24 03:12:20;;;;;;;227.55;104.75;;;;;;;1.01;78.93;95007.59;4996294;28;20049;-81
2022/12/24 03:14:48;;;;;;;218.63;101.22;;;;;;;1.24;78.24;95007.72;4995605;28;20045;-80
2022/12/24 03:17:14;;;;;;;231.27;105.25;;;;;;;1.41;78.62;95068.03;4995147;28;20061;-80
2022/12/24 03:19:40;;;;;;;205.07;99.20;;;;;;;0.78;78.89;94972.50;4995993;28;20106;-81
2022/12/24 03:22:09;;;;;;;240.18;109.32;;;;;;;1.05;78.53;95009.56;4978773;28;20042;-80
2022/12/24 03:24:35;;;;;;;225.18;105.88;;;;;;;0.81;78.27;94973.88;4996026;28;20097;-81
2022/12/24 03:27:01;;;;;;;223.35;106.00;;;;;;;1.64;78.80;95093.50;4978004;28;20126;-80
2022/12/24 03:29:27;;;;;;;236.40;109.85;;;;;;;1.07;78.49;95019.78;4995725;28;20027;-80
2022/12/24 03:31:59;;;;;;;217.80;102.35;;;;;;;1.49;78.66;95094.66;4995984;28;20041;-80
2022/12/24 03:34:25;;;;;;;231.82;105.22;;;;;;;0.96;78.41;95007.47;4981918;28;20064;-80
2022/12/24 03:36:50;;;;;;;227.80;105.45;;;;;;;1.53;78.27;95098.44;4988817;28;20027;-80
2022/12/24 03:39:16;;;;;;;247.90;109.22;;;;;;;0.92;78.37;95004.47;4977858;28;20027;-80
2022/12/24 03:41:41;;;;;;;225.85;107.43;;;;;;;0.82;78.43;94985.13;4980097;28;20037;-80
2022/12/24 03:44:07;;;;;;;230.23;106.03;;;;;;;1.54;78.52;95096.63;4979838;28;20591;-81
2022/12/24 03:46:33;;;;;;;234.60;108.38;;;;;;;1.54;78.74;95100.03;4996348;28;20118;-81
2022/12/24 03:48:58;;;;;;;224.10;109.32;;;;;;;-0.01;78.59;94862.97;4999445;28;20038;-80
2022/12/24 03:51:25;;;;;;;238.48;109.85;;;;;;;1.47;78.86;95088.84;4977837;28;20046;-80
2022/12/24 03:53:56;;;;;;;222.50;104.72;;;;;;;0.67;79.17;94970.63;4995452;28;20046;-81
2022/12/24 03:56:22;;;;;;;223.05;103.43;;;;;;;1.00;78.85;95013.84;4978081;28;20516;-81
2022/12/24 03:58:48;;;;;;;219.90;102.15;;;;;;;1.34;79.03;95069.94;4981354;28;20042;-81
2022/12/24 04:01:15;;;;;;;213.88;99.68;;;;;;;1.16;78.89;95031.53;4982102;28;20104;-81
2022/12/24 04:03:41;;;;;;;228.85;103.47;;;;;;;0.29;78.19;94902.19;4981565;28;20120;-80
2022/12/24 04:06:08;;;;;;;211.75;99.97;;;;;;;1.59;78.15;95114.28;4981260;28;20469;-80
2022/12/24 04:08:34;;;;;;;219.15;100.00;;;;;;;0.81;77.99;94994.78;4996257;28;20041;-81
2022/12/24 04:10:59;;;;;;;211.57;95.90;;;;;;;1.42;78.73;95099.19;4980565;28;20046;-80
2022/12/24 04:13:25;;;;;;;211.52;94.32;;;;;;;1.04;78.50;95041.94;4998037;28;20097;-80
2022/12/24 04:16:02;;;;;;;202.05;95.45;;;;;;;1.26;77.93;95075.44;4998116;28;20089;-80
2022/12/24 04:18:28;;;;;;;208.20;95.85;;;;;;;1.17;78.59;95060.06;4981268;28;20065;-81
2022/12/24 04:20:54;;;;;;;212.95;97.80;;;;;;;1.62;78.65;95121.66;4989436;28;20034;-80
2022/12/24 04:23:19;;;;;;;222.32;101.13;;;;;;;1.53;78.25;95121.97;4998327;28;20053;-80
2022/12/24 04:25:45;;;;;;;225.88;111.63;;;;;;;1.49;78.47;95118.19;4998253;28;20512;-81
2022/12/24 04:28:11;;;;;;;225.45;110.07;;;;;;;0.94;78.47;95030.38;4980908;28;20041;-80
2022/12/24 04:30:38;;;;;;;232.77;112.90;;;;;;;1.27;78.28;95084.88;4998635;28;20038;-80
2022/12/24 04:33:03;;;;;;;218.60;107.40;;;;;;;1.24;78.42;95086.09;4980636;28;20030;-81
2022/12/24 04:35:29;;;;;;;204.38;101.68;;;;;;;1.06;78.20;95067.84;4998282;28;20629;-81
2022/12/24 04:37:54;;;;;;;208.13;99.70;;;;;;;1.38;78.61;95115.50;4997836;28;20579;-81
2022/12/24 04:40:20;;;;;;;214.80;100.40;;;;;;;0.75;78.48;95019.94;4998118;28;20030;-81
2022/12/24 04:42:45;;;;;;;206.48;100.45;;;;;;;0.55;78.36;95000.25;4980564;28;20138;-80
2022/12/24 04:45:10;;;;;;;220.05;102.65;;;;;;;1.38;79.06;95121.53;4978361;28;20046;-81
2022/12/24 04:47:36;;;;;;;208.20;99.60;;;;;;;0.48;78.45;94968.19;4996522;28;20038;-81
2022/12/24 04:50:02;;;;;;;210.85;101.15;;;;;;;1.54;78.98;95143.66;4997764;28;20045;-81
2022/12/24 04:52:27;;;;;;;208.40;98.28;;;;;;;1.54;78.57;95133.22;4980859;28;20039;-81
2022/12/24 04:54:53;;;;;;;219.80;103.45;;;;;;;0.78;78.30;95027.31;4998314;28;20113;-80
2022/12/24 04:57:18;;;;;;;213.57;99.07;;;;;;;0.90;78.38;95037.06;5003642;28;20478;-80
2022/12/24 04:59:44;;;;;;;202.70;96.65;;;;;;;0.90;78.37;95037.88;4988266;28;20389;-80
2022/12/24 05:02:09;;;;;;;210.63;99.82;;;;;;;0.56;78.57;95001.84;4981277;28;20520;-81
2022/12/24 05:04:35;;;;;;;205.73;96.40;;;;;;;1.48;78.62;95140.13;4997635;28;20041;-81
2022/12/24 05:07:00;;;;;;;198.32;93.00;;;;;;;0.66;78.42;95047.31;4979742;28;20045;-80
2022/12/24 05:09:25;;;;;;;191.65;90.68;;;;;;;1.20;78.53;95098.00;4997443;28;20037;-80
2022/12/24 05:11:51;;;;;;;197.18;95.45;;;;;;;1.42;78.29;95140.19;4979744;28;20030;-80
2022/12/24 05:14:16;;;;;;;196.07;92.40;;;;;;;1.27;78.29;95114.41;4980970;28;20042;-80
2022/12/24 05:16:42;;;;;;;194.65;95.85;;;;;;;1.42;78.14;95122.69;4989547;28;20054;-80
2022/12/24 05:19:08;;;;;;;194.75;94.30;;;;;;;1.12;78.35;95072.97;4980078;28;20046;-80
2022/12/24 05:21:34;;;;;;;199.20;93.03;;;;;;;0.55;78.74;94979.38;5009850;28;20034;-80
2022/12/24 05:26:53;;;;;;;184.32;84.05;;;;;;;1.28;78.36;95089.91;4998184;28;20061;-81
2022/12/24 05:29:18;;;;;;;180.93;87.57;;;;;;;0.79;78.37;95035.94;4978781;28;20070;-81
2022/12/24 05:31:44;;;;;;;200.52;96.97;;;;;;;1.43;78.53;95124.28;4998396;28;20042;-81
2022/12/24 05:34:12;;;;;;;215.98;103.00;;;;;;;0.70;78.49;95017.16;4987683;28;20030;-81
2022/12/24 05:36:38;;;;;;;210.82;100.20;;;;;;;0.91;78.61;95041.28;4996874;28;20042;-81
2022/12/24 05:39:04;;;;;;;219.65;103.53;;;;;;;0.28;77.99;94947.53;5001647;28;20040;-81
2022/12/24 05:41:31;;;;;;;236.32;106.82;;;;;;;0.75;78.37;95013.91;4998310;28;20081;-81
2022/12/24 05:43:56;;;;;;;229.20;104.80;;;;;;;0.89;78.08;95027.63;4980637;28;20042;-81
2022/12/24 05:46:24;;;;;;;206.20;100.28;;;;;;;1.48;78.03;95116.59;4979780;28;20038;-81
2022/12/24 05:48:50;;;;;;;207.60;98.07;;;;;;;0.75;77.87;95035.59;4995504;28;20049;-80
2022/12/24 05:51:18;;;;;;;231.25;102.55;;;;;;;0.20;77.64;94953.03;4996667;28;20027;-81
2022/12/24 05:53:44;;;;;;;222.98;102.18;;;;;;;1.30;77.83;95113.97;4996848;28;20038;-81
2022/12/24 05:56:14;;;;;;;225.98;107.13;;;;;;;0.81;77.07;95018.28;4996369;28;20109;-81
2022/12/24 05:58:40;;;;;;;224.68;104.05;;;;;;;0.96;77.31;95030.97;4976717;28;20472;-81
2022/12/24 06:01:06;;;;;;;225.93;105.47;;;;;;;0.64;76.83;94999.75;4981112;28;20035;-81
2022/12/24 06:03:32;;;;;;;214.20;99.60;;;;;;;0.65;76.61;95003.97;4987256;28;20069;-80
2022/12/24 06:05:59;;;;;;;229.30;104.28;;;;;;;1.34;76.78;95109.91;4994366;28;20049;-80
2022/12/24 06:08:25;;;;;;;225.77;101.88;;;;;;;0.26;76.52;94962.59;4993522;28;20068;-81
2022/12/24 06:10:59;;;;;;;221.38;98.47;;;;;;;0.84;76.60;95033.47;4967794;28;20425;-81
2022/12/24 06:13:24;;;;;;;227.10;100.55;;;;;;;1.11;76.56;95071.38;4995452;28;20139;-80
2022/12/24 06:15:54;;;;;;;217.35;98.75;;;;;;;0.99;76.51;95065.25;4996281;28;20129;-80
2022/12/24 06:18:19;;;;;;;198.82;94.82;;;;;;;1.32;76.42;95113.75;4996588;28;20707;-80
2022/12/24 06:20:44;;;;;;;212.38;93.95;;;;;;;0.93;76.26;95067.94;4996706;28;20117;-81
2022/12/24 06:23:10;;;;;;;205.63;93.10;;;;;;;1.39;76.44;95138.00;4997376;28;20045;-81
2022/12/24 06:25:36;;;;;;;190.05;87.35;;;;;;;1.46;76.34;95143.94;4997346;28;20038;-81
2022/12/24 06:28:01;;;;;;;187.60;85.68;;;;;;;1.11;76.28;95086.25;4979391;28;20030;-80
2022/12/24 06:30:27;;;;;;;183.40;87.35;;;;;;;0.98;75.82;95063.69;4980014;28;20038;-80
2022/12/24 06:32:52;;;;;;;193.00;89.13;;;;;;;1.32;76.27;95127.63;4997523;28;20038;-80
2022/12/24 06:35:17;;;;;;;194.15;88.55;;;;;;;1.22;75.98;95105.66;4984404;28;20065;-81
2022/12/24 06:37:43;;;;;;;197.43;91.68;;;;;;;0.92;76.00;95069.75;4982983;28;20049;-80
2022/12/24 06:40:09;;;;;;;215.75;90.82;;;;;;;1.53;75.76;95160.34;5002463;28;20037;-81
2022/12/24 06:42:34;;;;;;;216.02;91.78;;;;;;;1.52;75.66;95159.59;5002166;28;20042;-81
2022/12/24 06:44:59;;;;;;;209.88;88.82;;;;;;;1.31;75.50;95118.19;5001685;28;20040;-80
2022/12/24 06:47:25;;;;;;;207.75;94.60;;;;;;;0.99;75.72;95075.69;4996562;28;20535;-81
2022/12/24 06:49:50;;;;;;;207.88;93.30;;;;;;;0.98;75.88;95062.88;4980911;28;20043;-81
2022/12/24 06:52:16;;;;;;;203.50;90.82;;;;;;;1.61;75.29;95170.53;4991504;28;20039;-81
2022/12/24 06:54:41;;;;;;;216.32;96.88;;;;;;;1.12;75.84;95090.47;4980647;28;20072;-81
2022/12/24 06:57:07;;;;;;;215.57;96.85;;;;;;;1.39;75.82;95122.31;5012528;28;20042;-80
2022/12/24 06:59:32;;;;;;;211.63;96.13;;;;;;;0.84;75.77;95030.09;4998005;28;20037;-80
2022/12/24 07:01:57;;;;;;;237.43;102.07;;;;;;;1.31;76.13;95094.66;4990957;28;20121;-80
2022/12/24 07:04:23;;;;;;;240.82;106.50;;;;;;;1.16;76.21;95063.69;4977911;28;20061;-80
2022/12/24 07:06:48;;;;;;;235.48;102.03;;;;;;;1.70;76.33;95150.94;5000772;28;20030;-80
2022/12/24 07:09:14;;;;;;;234.43;102.95;;;;;;;1.66;76.31;95130.69;4983831;28;20413;-80
2022/12/24 07:11:39;;;;;;;223.27;99.60;;;;;;;1.60;76.93;95155.09;4972784;28;20039;-80
2022/12/24 07:14:04;;;;;;;208.23;93.20;;;;;;;1.09;76.66;95042.06;4989139;28;20034;-80
2022/12/24 07:16:30;;;;;;;199.07;92.97;;;;;;;1.07;77.09;95031.03;4995340;28;20061;-80
2022/12/24 07:18:55;;;;;;;205.10;96.57;;;;;;;2.05;77.07;95171.25;4995698;28;20030;-80
2022/12/24 07:21:21;;;;;;;192.10;93.18;;;;;;;2.18;77.09;95164.03;4995328;28;20026;-80
2022/12/24 07:23:46;;;;;;;192.23;88.80;;;;;;;1.57;76.76;95056.97;4995146;28;20045;-80
2022/12/24 07:26:12;;;;;;;187.18;87.97;;;;;;;1.74;76.77;95070.25;4994020;28;20031;-80
2022/12/24 07:28:37;;;;;;;163.32;82.28;;;;;;;1.45;76.83;95033.38;4995764;28;20432;-81
2022/12/24 07:31:03;;;;;;;174.88;80.72;;;;;;;2.05;76.66;95117.13;4979998;28;20121;-80
2022/12/24 07:33:28;;;;;;;153.38;71.30;;;;;;;1.42;76.76;94999.88;4981357;28;20038;-80
2022/12/24 07:36:18;;;;;;;147.65;72.80;;;;;;;2.56;76.97;95171.56;4982292;28;20065;-80
2022/12/24 07:38:45;;;;;;;147.95;70.25;;;;;;;2.65;76.99;95172.84;4975032;28;20367;-81
2022/12/24 07:41:10;;;;;;;149.88;71.80;;;;;;;1.92;76.68;95050.06;4981685;28;20125;-80
2022/12/24 07:43:35;;;;;;;132.00;67.15;;;;;;;1.84;76.89;95020.81;5000074;28;20034;-80
2022/12/24 07:46:01;;;;;;;141.93;67.10;;;;;;;2.64;77.07;95141.63;4999502;28;20037;-80
2022/12/24 07:48:28;;;;;;;140.75;68.82;;;;;;;2.24;77.26;95068.13;4999920;28;20040;-80
2022/12/24 07:50:54;;;;;;;143.23;68.65;;;;;;;2.13;77.35;95037.53;5004181;28;20050;-80
2022/12/24 07:53:20;;;;;;;152.10;69.10;;;;;;;3.17;76.98;95177.47;4980308;28;20090;-81
2022/12/24 07:55:45;;;;;;;129.93;63.67;;;;;;;1.92;76.90;94962.97;4997835;28;20067;-80
2022/12/24 07:58:11;;;;;;;116.93;55.80;;;;;;;2.94;77.14;95112.75;4981010;28;20129;-81
2022/12/24 08:00:36;;;;;;;109.88;54.92;;;;;;;2.76;76.95;95078.78;4981740;28;20034;-80
2022/12/24 08:03:02;;;;;;;114.50;55.53;;;;;;;3.25;76.34;95148.31;4999208;28;20034;-80
2022/12/24 08:05:27;;;;;;;129.75;59.75;;;;;;;3.14;76.27;95131.53;4991833;28;20045;-81
2022/12/24 08:07:54;;;;;;;127.28;60.13;;;;;;;2.92;76.06;95078.91;5001416;28;20106;-80
2022/12/24 08:10:20;;;;;;;165.70;72.18;;;;;;;3.27;76.34;95148.88;4998702;28;20559;-81
2022/12/24 08:12:47;;;;;;;161.85;81.45;;;;;;;3.59;76.14;95192.03;4998787;28;20038;-81
2022/12/24 08:15:12;;;;;;;181.38;81.70;;;;;;;3.57;74.95;95207.22;4980895;28;20065;-81
2022/12/24 08:17:38;;;;;;;173.20;78.25;;;;;;;3.68;74.90;95213.47;4987407;28;20773;-81
2022/12/24 08:20:04;;;;;;;168.05;79.43;;;;;;;3.32;74.57;95169.94;4998559;28;20045;-80
2022/12/24 08:22:30;;;;;;;172.40;79.10;;;;;;;3.11;74.37;95139.88;4975691;28;20027;-81
2022/12/24 08:24:55;;;;;;;174.93;81.22;;;;;;;2.95;73.93;95101.25;4988353;28;20045;-81
2022/12/24 08:27:21;;;;;;;175.98;82.72;;;;;;;2.87;73.98;95060.47;4998907;28;20038;-81
2022/12/24 08:29:46;;;;;;;178.57;80.13;;;;;;;3.30;73.69;95109.88;4980935;28;20456;-81
2022/12/24 08:32:12;;;;;;;167.70;77.18;;;;;;;3.44;73.88;95111.22;5000212;28;20117;-81
2022/12/24 08:34:37;;;;;;;185.75;79.00;;;;;;;2.84;73.70;95010.34;5005839;28;20110;-81
2022/12/24 08:37:02;;;;;;;165.27;76.10;;;;;;;3.76;73.93;95144.94;5012985;28;20041;-81
2022/12/24 08:39:28;;;;;;;163.25;78.75;;;;;;;3.32;73.50;95070.34;5005895;28;20026;-81
2022/12/24 08:41:53;;;;;;;162.88;80.63;;;;;;;3.20;73.53;95031.06;4980456;28;20037;-81
2022/12/24 08:44:19;;;;;;;150.32;76.10;;;;;;;3.82;73.33;95107.28;4997904;28;20045;-81
2022/12/24 08:46:45;;;;;;;154.23;73.03;;;;;;;3.44;73.58;95044.88;4980962;28;20030;-81
2022/12/24 08:49:11;;;;;;;145.95;67.97;;;;;;;3.73;73.59;95062.28;4998407;28;20058;-81
2022/12/24 08:51:36;;;;;;;144.27;70.07;;;;;;;4.48;73.85;95182.03;4998457;28;20034;-81
2022/12/24 08:54:01;;;;;;;137.50;69.40;;;;;;;3.45;74.32;95001.91;4998449;28;20033;-81
2022/12/24 08:56:27;;;;;;;139.60;67.00;;;;;;;3.20;73.57;94967.38;4980530;28;20038;-81
2022/12/24 08:58:53;;;;;;;137.65;66.57;;;;;;;4.26;73.71;95124.94;4980433;28;20026;-80
2022/12/24 09:01:19;;;;;;;137.25;68.65;;;;;;;3.97;73.92;95094.44;4998496;28;20404;-80
2022/12/24 09:03:45;;;;;;;141.27;74.47;;;;;;;4.72;74.00;95195.84;4997814;28;20037;-80
2022/12/24 09:06:11;;;;;;;156.38;73.80;;;;;;;3.95;73.78;95107.03;4981140;28;20026;-80
2022/12/24 09:08:37;;;;;;;153.88;78.85;;;;;;;4.47;74.21;95190.94;4980656;28;20038;-80
2022/12/24 09:11:11;;;;;;;159.45;77.38;;;;;;;3.72;73.73;95083.47;4998148;28;20057;-80
2022/12/24 09:13:37;;;;;;;160.35;76.97;;;;;;;3.82;73.67;95067.91;5007206;28;20113;-80
2022/12/24 09:16:04;;;;;;;158.77;77.50;;;;;;;4.44;73.52;95180.88;5010774;28;20084;-80
2022/12/24 09:18:29;;;;;;;145.80;71.68;;;;;;;3.97;74.76;95128.56;4986610;28;20034;-80
2022/12/24 09:21:03;;;;;;;146.82;69.07;;;;;;;4.41;74.10;95165.63;4998218;28;20058;-80
2022/12/24 09:23:29;;;;;;;154.05;70.30;;;;;;;4.41;74.93;95168.25;4997666;28;20447;-80
2022/12/24 09:25:54;;;;;;;150.77;73.40;;;;;;;3.65;74.63;95070.50;4980627;28;20037;-80
2022/12/24 09:28:21;;;;;;;149.95;72.10;;;;;;;3.75;74.55;95067.25;5001700;28;20018;-80
2022/12/24 09:31:00;;;;;;;159.48;76.53;;;;;;;3.70;73.94;95049.63;4994989;28;20057;-80
2022/12/24 09:33:28;;;;;;;143.88;70.18;;;;;;;4.73;73.96;95179.84;4992292;28;20081;-80
2022/12/24 09:35:54;;;;;;;157.80;71.57;;;;;;;3.92;73.79;95068.13;4979432;28;20030;-80
2022/12/24 09:38:20;;;;;;;139.57;69.30;;;;;;;4.78;73.26;95181.75;4997157;28;20108;-79
2022/12/24 09:40:46;;;;;;;134.82;62.17;;;;;;;4.18;73.80;95093.00;4987984;28;20026;-80
2022/12/24 09:43:23;;;;;;;134.85;59.85;;;;;;;4.81;74.31;95173.38;4992504;28;20097;-80
2022/12/24 09:45:58;;;;;;;127.45;58.72;;;;;;;4.87;74.01;95175.91;4984208;28;20040;-80
2022/12/24 09:48:40;;;;;;;139.48;58.17;;;;;;;4.92;73.08;95175.16;4996827;28;20435;-80
2022/12/24 09:51:08;;;;;;;120.70;57.00;;;;;;;4.61;73.14;95174.66;4996135;28;20424;-80
2022/12/24 09:53:50;;;;;;;121.53;57.75;;;;;;;4.01;73.50;95044.94;4997766;28;20026;-80
2022/12/24 09:56:30;;;;;;;119.57;55.97;;;;;;;4.30;73.33;95077.97;4984370;28;20029;-81
2022/12/24 09:59:04;;;;;;;121.32;57.25;;;;;;;4.88;73.79;95169.56;4997319;28;20065;-80
2022/12/24 10:01:32;;;;;;;125.15;56.80;;;;;;;4.19;73.73;95058.66;4997393;28;20030;-80
2022/12/24 10:04:02;;;;;;;114.68;55.17;;;;;;;4.65;73.68;95117.19;4986876;28;20040;-80
2022/12/24 10:06:44;;;;;;;119.45;57.05;;;;;;;4.70;72.84;95113.84;5002737;28;20037;-81
2022/12/24 10:09:28;;;;;;;121.38;59.65;;;;;;;4.96;73.49;95184.97;4980427;28;20054;-80
2022/12/24 10:12:19;;;;;;;119.57;56.03;;;;;;;5.01;73.76;95176.38;4997250;28;20049;-80
2022/12/24 10:15:07;;;;;;;125.07;57.47;;;;;;;4.35;73.47;95062.31;4997481;28;20031;-80
2022/12/24 10:17:59;;;;;;;119.18;56.45;;;;;;;4.34;73.03;95050.25;4978428;28;20129;-80
2022/12/24 10:20:31;;;;;;;105.47;53.10;;;;;;;5.28;73.44;95158.13;4982053;28;20089;-80
2022/12/24 10:23:05;;;;;;;112.22;54.47;;;;;;;5.41;72.91;95158.59;4973654;28;20054;-80
2022/12/24 10:25:44;;;;;;;132.18;59.22;;;;;;;5.48;73.15;95155.00;4981397;28;20033;-80
2022/12/24 10:28:18;;;;;;;119.63;57.45;;;;;;;5.54;72.52;95154.81;4978599;28;20142;-81
2022/12/24 10:30:48;;;;;;;104.18;53.95;;;;;;;5.42;72.52;95144.38;4978507;28;20030;-80
2022/12/24 10:33:42;;;;;;;117.88;57.35;;;;;;;5.77;72.24;95156.44;4965808;28;20039;-80
2022/12/24 10:36:15;;;;;;;119.30;57.53;;;;;;;5.80;72.05;95145.41;4969899;28;20535;-80
2022/12/24 10:38:41;;;;;;;113.70;55.92;;;;;;;6.06;71.65;95165.00;4974610;28;20073;-80
2022/12/24 10:41:07;;;;;;;107.80;53.97;;;;;;;5.13;71.14;95010.66;4993698;28;20030;-80
2022/12/24 10:43:32;;;;;;;108.68;54.08;;;;;;;6.16;71.02;95141.41;4977175;28;20291;-80
2022/12/24 10:46:06;;;;;;;115.00;57.20;;;;;;;5.63;69.98;95032.34;4992022;28;20042;-80
2022/12/24 10:48:40;;;;;;;112.20;57.55;;;;;;;6.35;69.79;95141.88;4961919;28;20034;-80
2022/12/24 10:51:20;;;;;;;115.88;58.13;;;;;;;6.41;69.77;95140.88;4980472;28;20491;-80
2022/12/24 10:53:56;;;;;;;117.72;56.90;;;;;;;6.28;69.66;95122.84;4981164;28;20039;-80
2022/12/24 10:56:21;;;;;;;117.88;57.50;;;;;;;6.07;69.11;95093.66;4982702;28;20564;-80
2022/12/24 10:58:52;;;;;;;111.38;55.38;;;;;;;5.47;68.81;94988.50;4983429;28;20102;-80
2022/12/24 11:01:19;;;;;;;112.90;54.13;;;;;;;5.76;69.07;95042.50;4968067;28;20142;-80
2022/12/24 11:03:59;;;;;;;109.70;54.95;;;;;;;5.54;69.02;95004.09;4969480;28;20041;-80
2022/12/24 11:06:24;;;;;;;106.45;55.78;;;;;;;6.05;69.33;95093.09;4971250;28;20065;-80
2022/12/24 11:08:49;;;;;;;113.50;55.47;;;;;;;6.28;69.52;95139.44;4992844;28;20030;-80
2022/12/24 11:11:19;;;;;;;101.35;53.97;;;;;;;6.38;69.27;95151.94;4978236;28;20038;-79
2022/12/24 11:13:50;;;;;;;114.13;56.65;;;;;;;6.43;69.62;95152.78;4989131;28;20030;-79
2022/12/24 11:16:31;;;;;;;116.43;56.85;;;;;;;5.95;68.87;95079.81;4994369;28;20094;-80
2022/12/24 11:18:59;;;;;;;122.28;57.58;;;;;;;5.56;69.90;95017.78;4968775;28;20042;-80
2022/12/24 11:21:31;;;;;;;99.95;53.15;;;;;;;6.41;69.10;95127.72;4993046;28;20125;-80
2022/12/24 11:24:06;;;;;;;;;;;;;;;6.47;69.64;95135.44;5000010;28;20117;-80
2022/12/24 11:26:31;;;;;;;117.88;53.75;;;;;;;5.36;69.91;94956.00;4982044;28;19917;-80
2022/12/24 11:29:20;;;;;;;114.65;53.00;;;;;;;6.54;69.91;95112.31;4964956;28;20536;-79
2022/12/24 11:31:47;;;;;;;110.88;54.80;;;;;;;5.35;69.29;94933.38;4963840;28;20058;-81